createdAt,value
2022-09-10T00:01:39.125Z,0.30
2022-09-10T00:04:14.344Z,0.40
2022-09-10T00:06:45.065Z,0.32
2022-09-10T00:09:15.752Z,0.32
2022-09-10T00:11:46.517Z,0.32
2022-09-10T00:14:21.309Z,0.20
2022-09-10T00:16:51.696Z,0.40
2022-09-10T00:19:24.746Z,0.38
2022-09-10T00:21:54.602Z,0.40
2022-09-10T00:24:25.445Z,0.20
2022-09-10T00:26:55.581Z,0.30
2022-09-10T00:29:25.721Z,0.30
2022-09-10T00:31:55.872Z,0.80
2022-09-10T00:34:28.731Z,0.25
2022-09-10T00:36:59.415Z,0.43
2022-09-10T00:39:29.546Z,0.38
2022-09-10T00:41:59.788Z,0.50
2022-09-10T00:44:58.590Z,0.40
2022-09-10T00:47:33.202Z,0.30
2022-09-10T00:50:08.339Z,0.40
2022-09-10T00:52:40.020Z,0.50
2022-09-10T00:55:11.175Z,0.50
2022-09-10T00:57:41.680Z,0.50
2022-09-10T01:00:13.621Z,0.47
2022-09-10T01:02:44.829Z,0.28
2022-09-10T01:05:18.508Z,0.38
2022-09-10T01:07:48.960Z,0.40
2022-09-10T01:10:21.704Z,0.30
2022-09-10T01:13:05.661Z,0.35
2022-09-10T01:15:40.380Z,0.20
2022-09-10T01:18:17.216Z,0.40
2022-09-10T01:21:08.201Z,0.80
2022-09-10T01:23:47.562Z,0.30
2022-09-10T01:26:30.065Z,0.32
2022-09-10T01:29:05.604Z,0.40
2022-09-10T01:31:42.058Z,0.25
2022-09-10T01:34:17.266Z,0.25
2022-09-10T01:36:51.988Z,0.38
2022-09-10T01:39:24.018Z,0.90
2022-09-10T01:41:56.755Z,0.80
2022-09-10T01:44:47.192Z,0.80
2022-09-10T01:47:28.128Z,0.80
2022-09-10T01:50:16.202Z,0.40
2022-09-10T01:52:58.599Z,0.32
2022-09-10T01:55:37.602Z,0.70
2022-09-10T01:58:17.804Z,0.70
2022-09-10T02:00:56.933Z,0.52
2022-09-10T02:03:28.178Z,0.38
2022-09-10T02:05:59.678Z,0.80
2022-09-10T02:08:33.752Z,0.90
2022-09-10T02:11:06.471Z,0.50
2022-09-10T02:13:40.098Z,0.40
2022-09-10T02:16:24.230Z,0.60
2022-09-10T02:18:54.533Z,0.60
2022-09-10T02:21:24.805Z,0.63
2022-09-10T02:23:57.228Z,1.15
2022-09-10T02:26:28.062Z,0.43
2022-09-10T02:28:58.364Z,0.47
2022-09-10T02:31:31.191Z,0.57
2022-09-10T02:34:03.188Z,0.47
2022-09-10T02:36:33.524Z,0.68
2022-09-10T02:39:04.821Z,0.40
2022-09-10T02:41:37.661Z,0.50
2022-09-10T02:44:08.693Z,0.52
2022-09-10T02:46:42.941Z,0.60
2022-09-10T02:49:13.244Z,0.55
2022-09-10T02:51:44.729Z,0.50
2022-09-10T02:54:15.156Z,0.65
2022-09-10T02:56:46.093Z,0.35
2022-09-10T02:59:16.383Z,0.35
2022-09-10T03:01:49.229Z,0.50
2022-09-10T03:04:20.603Z,0.40
2022-09-10T03:06:54.957Z,0.43
2022-09-10T03:09:28.621Z,0.38
2022-09-10T03:11:59.711Z,0.75
2022-09-10T03:14:30.360Z,0.30
2022-09-10T03:17:03.850Z,0.50
2022-09-10T03:19:34.062Z,0.57
2022-09-10T03:22:04.258Z,0.93
2022-09-10T03:24:36.494Z,0.20
2022-09-10T03:27:09.190Z,0.50
2022-09-10T03:29:39.481Z,0.28
2022-09-10T03:32:12.537Z,0.55
2022-09-10T03:34:43.004Z,0.38
2022-09-10T03:37:14.206Z,1.02
2022-09-10T03:39:45.370Z,0.40
2022-09-10T03:42:18.722Z,0.57
2022-09-10T03:44:49.268Z,0.60
2022-09-10T03:47:22.057Z,0.50
2022-09-10T03:49:52.301Z,0.82
2022-09-10T03:52:22.833Z,0.80
2022-09-10T03:54:54.335Z,0.50
2022-09-10T03:57:25.976Z,0.52
2022-09-10T03:59:56.774Z,0.57
2022-09-10T04:02:30.096Z,0.50
2022-09-10T04:05:00.306Z,0.60
2022-09-10T04:07:30.475Z,0.40
2022-09-10T04:10:00.716Z,0.47
2022-09-10T04:12:30.845Z,0.75
2022-09-10T04:15:01.623Z,0.50
2022-09-10T04:17:34.825Z,0.30
2022-09-10T04:20:05.444Z,0.60
2022-09-10T04:22:36.970Z,0.30
2022-09-10T04:25:08.229Z,0.20
2022-09-10T04:27:38.439Z,0.30
2022-09-10T04:30:09.549Z,0.25
2022-09-10T04:32:42.389Z,0.38
2022-09-10T04:35:15.310Z,0.20
2022-09-10T04:37:46.166Z,0.30
2022-09-10T04:40:16.365Z,0.20
2022-09-10T04:42:46.496Z,0.40
2022-09-10T04:45:16.796Z,0.10
2022-09-10T04:47:49.798Z,0.77
2022-09-10T04:50:20.003Z,0.28
2022-09-10T04:53:10.545Z,0.30
2022-09-10T04:55:42.958Z,0.20
2022-09-10T04:58:13.696Z,0.30
2022-09-10T05:00:45.527Z,0.32
2022-09-10T05:03:18.418Z,0.47
2022-09-10T05:05:48.858Z,0.47
2022-09-10T05:08:19.050Z,0.43
2022-09-10T05:10:55.633Z,0.40
2022-09-10T05:13:26.230Z,0.75
2022-09-10T05:15:58.046Z,0.85
2022-09-10T05:18:31.720Z,0.60
2022-09-10T05:21:02.222Z,1.00
2022-09-10T05:23:32.529Z,0.63
2022-09-10T05:26:04.404Z,0.73
2022-09-10T05:28:34.567Z,0.95
2022-09-10T05:31:06.024Z,0.77
2022-09-10T05:33:40.827Z,0.35
2022-09-10T05:36:13.037Z,0.35
2022-09-10T05:38:45.589Z,1.10
2022-09-10T05:41:16.281Z,0.30
2022-09-10T05:43:49.651Z,0.43
2022-09-10T05:46:20.169Z,0.50
2022-09-10T05:48:56.832Z,0.77
2022-09-10T05:51:29.934Z,0.40
2022-09-10T05:54:04.855Z,0.20
2022-09-10T05:56:37.519Z,0.35
2022-09-10T05:59:07.742Z,0.17
2022-09-10T06:01:37.981Z,0.40
2022-09-10T06:04:12.680Z,0.20
2022-09-10T06:06:42.940Z,0.47
2022-09-10T06:09:15.616Z,0.60
2022-09-10T06:11:51.890Z,0.60
2022-09-10T06:14:24.476Z,0.47
2022-09-10T06:16:55.273Z,0.57
2022-09-10T06:19:29.676Z,0.90
2022-09-10T06:22:00.661Z,0.57
2022-09-10T06:24:31.756Z,0.65
2022-09-10T06:27:02.978Z,0.30
2022-09-10T06:29:36.697Z,0.45
2022-09-10T06:32:07.897Z,0.40
2022-09-10T06:34:40.660Z,0.60
2022-09-10T06:37:11.454Z,0.38
2022-09-10T06:39:42.549Z,0.50
2022-09-10T06:42:13.849Z,0.52
2022-09-10T06:45:16.330Z,0.40
2022-09-10T06:48:38.267Z,0.30
2022-09-10T06:51:08.151Z,0.52
2022-09-10T06:53:40.849Z,0.20
2022-09-10T06:56:15.178Z,0.50
2022-09-10T06:58:46.290Z,0.50
2022-09-10T07:01:18.945Z,0.30
2022-09-10T07:03:57.852Z,0.30
2022-09-10T07:06:35.177Z,0.40
2022-09-10T07:09:12.017Z,0.22
2022-09-10T07:11:51.065Z,0.40
2022-09-10T07:14:21.798Z,0.65
2022-09-10T07:16:53.492Z,0.32
2022-09-10T07:19:26.817Z,0.22
2022-09-10T07:21:59.682Z,0.30
2022-09-10T07:24:29.914Z,0.20
2022-09-10T07:27:11.070Z,0.47
2022-09-10T07:29:43.514Z,0.40
2022-09-10T07:32:18.332Z,0.38
2022-09-10T07:34:49.304Z,0.20
2022-09-10T07:37:22.774Z,0.52
2022-09-10T07:39:53.225Z,0.32
2022-09-10T07:42:25.336Z,0.30
2022-09-10T07:44:55.656Z,0.38
2022-09-10T07:47:27.385Z,0.40
2022-09-10T07:49:57.681Z,0.50
2022-09-10T07:52:30.473Z,0.47
2022-09-10T07:55:02.848Z,0.25
2022-09-10T07:57:33.607Z,0.10
2022-09-10T08:00:03.951Z,1.25
2022-09-10T08:02:46.557Z,0.30
2022-09-10T08:05:21.581Z,0.32
2022-09-10T08:07:57.185Z,0.40
2022-09-10T08:10:29.800Z,0.40
2022-09-10T08:13:01.353Z,0.60
2022-09-10T08:15:31.222Z,0.20
2022-09-10T08:18:03.813Z,0.40
2022-09-10T08:20:34.873Z,0.38
2022-09-10T08:23:07.627Z,0.30
2022-09-10T08:25:38.229Z,0.50
2022-09-10T08:28:08.517Z,0.30
2022-09-10T08:30:39.657Z,0.20
2022-09-10T08:33:10.175Z,0.32
2022-09-10T08:35:42.485Z,0.38
2022-09-10T08:38:15.400Z,1.10
2022-09-10T08:40:46.464Z,0.50
2022-09-10T08:43:17.103Z,0.40
2022-09-10T08:45:51.429Z,0.30
2022-09-10T08:48:23.193Z,0.20
2022-09-10T08:51:00.183Z,0.30
2022-09-10T08:53:35.148Z,0.38
2022-09-10T08:56:07.376Z,0.20
2022-09-10T08:58:43.538Z,0.20
2022-09-10T09:01:17.567Z,0.25
2022-09-10T09:03:48.662Z,0.10
2022-09-10T09:06:27.781Z,0.20
2022-09-10T09:09:02.649Z,0.20
2022-09-10T09:11:44.526Z,0.20
2022-09-10T09:14:25.298Z,0.10
2022-09-10T09:17:12.666Z,0.22
2022-09-10T09:19:48.513Z,0.20
2022-09-10T09:22:21.497Z,0.20
2022-09-10T09:25:00.796Z,0.60
2022-09-10T09:27:33.723Z,0.30
2022-09-10T09:30:06.687Z,0.13
2022-09-10T09:32:44.769Z,0.17
2022-09-10T09:35:27.412Z,0.20
2022-09-10T09:38:13.812Z,0.30
2022-09-10T09:40:50.361Z,2.58
2022-09-10T09:43:35.502Z,0.30
2022-09-10T09:46:06.676Z,0.22
2022-09-10T09:48:41.373Z,0.30
2022-09-10T09:51:15.071Z,0.28
2022-09-10T09:53:48.371Z,0.30
2022-09-10T09:56:25.105Z,0.40
2022-09-10T09:58:55.244Z,0.50
2022-09-10T10:01:26.509Z,0.30
2022-09-10T10:04:02.909Z,0.30
2022-09-10T10:06:34.654Z,0.10
2022-09-10T10:09:06.479Z,0.38
2022-09-10T10:12:02.262Z,0.32
2022-09-10T10:14:43.426Z,0.30
2022-09-10T10:17:32.419Z,0.30
2022-09-10T10:20:11.408Z,0.40
2022-09-10T10:22:43.065Z,0.30
2022-09-10T10:25:36.567Z,0.38
2022-09-10T10:28:06.911Z,0.25
2022-09-10T10:30:39.696Z,0.20
2022-09-10T10:33:22.140Z,0.40
2022-09-10T10:35:53.330Z,0.25
2022-09-10T10:38:33.784Z,0.20
2022-09-10T10:41:28.090Z,0.22
2022-09-10T10:44:08.258Z,0.30
2022-09-10T10:46:48.715Z,0.55
2022-09-10T10:49:25.871Z,0.30
2022-09-10T10:52:00.456Z,0.65
2022-09-10T10:54:47.603Z,0.30
2022-09-10T10:57:26.634Z,0.40
2022-09-10T11:00:01.176Z,0.55
2022-09-10T11:02:39.239Z,0.50
2022-09-10T11:05:19.263Z,0.75
2022-09-10T11:07:49.829Z,1.10
2022-09-10T11:10:23.141Z,0.80
2022-09-10T11:12:56.685Z,0.57
2022-09-10T11:15:33.456Z,0.40
2022-09-10T11:18:16.193Z,1.42
2022-09-10T11:20:49.277Z,0.88
2022-09-10T11:23:24.739Z,0.75
2022-09-10T11:25:59.581Z,0.88
2022-09-10T11:28:31.651Z,0.82
2022-09-10T11:31:04.127Z,0.60
2022-09-10T11:33:40.057Z,0.70
2022-09-10T11:36:14.461Z,0.60
2022-09-10T11:38:49.488Z,0.90
2022-09-10T11:41:22.381Z,0.65
2022-09-10T11:43:55.297Z,0.90
2022-09-10T11:46:30.069Z,0.60
2022-09-10T11:49:04.996Z,0.35
2022-09-10T11:51:36.974Z,0.55
2022-09-10T11:54:08.458Z,1.00
2022-09-10T11:56:46.972Z,0.63
2022-09-10T11:59:24.581Z,0.93
2022-09-10T12:02:04.389Z,0.65
2022-09-10T12:04:47.627Z,0.50
2022-09-10T12:07:28.417Z,0.60
2022-09-10T12:10:05.413Z,0.45
2022-09-10T12:12:40.965Z,0.75
2022-09-10T12:15:12.289Z,0.60
2022-09-10T12:17:45.265Z,0.40
2022-09-10T12:20:21.910Z,0.77
2022-09-10T12:22:55.733Z,0.68
2022-09-10T12:25:33.926Z,0.77
2022-09-10T12:28:08.185Z,0.57
2022-09-10T12:31:02.901Z,0.57
2022-09-10T12:34:00.493Z,0.30
2022-09-10T12:36:45.747Z,0.80
2022-09-10T12:39:28.559Z,0.63
2022-09-10T12:42:05.780Z,0.63
2022-09-10T12:44:56.950Z,0.73
2022-09-10T12:47:42.745Z,0.80
2022-09-10T12:50:27.976Z,0.73
2022-09-10T12:53:05.630Z,0.50
2022-09-10T12:55:47.257Z,0.80
2022-09-10T12:58:25.092Z,0.85
2022-09-10T13:01:08.599Z,0.52
2022-09-10T13:03:39.286Z,0.80
2022-09-10T13:06:10.012Z,0.57
2022-09-10T13:08:43.064Z,0.30
2022-09-10T13:11:22.573Z,0.30
2022-09-10T13:13:59.618Z,0.20
2022-09-10T13:16:42.618Z,0.30
2022-09-10T13:19:27.938Z,0.68
2022-09-10T13:21:58.736Z,0.73
2022-09-10T13:25:02.728Z,0.03
2022-09-10T13:27:43.685Z,0.20
2022-09-10T13:30:20.205Z,0.15
2022-09-10T13:32:52.250Z,0.17
2022-09-10T13:35:52.896Z,0.20
2022-09-10T13:38:39.481Z,0.32
2022-09-10T13:41:25.972Z,0.10
2022-09-10T13:44:13.193Z,0.20
2022-09-10T13:46:45.913Z,0.40
2022-09-10T13:49:19.192Z,0.17
2022-09-10T13:51:52.951Z,0.10
2022-09-10T13:56:54.149Z,0.20
2022-09-10T13:59:31.195Z,0.20
2022-09-10T14:02:02.529Z,0.32
2022-09-10T14:04:40.872Z,0.13
2022-09-10T14:07:17.692Z,0.10
2022-09-10T14:09:50.576Z,0.30
2022-09-10T14:12:26.105Z,0.03
2022-09-10T14:15:01.118Z,0.25
2022-09-10T14:17:34.173Z,0.08
2022-09-10T14:20:07.449Z,0.63
2022-09-10T14:22:37.668Z,0.30
2022-09-10T14:25:09.823Z,0.20
2022-09-10T14:27:41.071Z,0.60
2022-09-10T14:30:25.349Z,0.30
2022-09-10T14:32:56.350Z,0.20
2022-09-10T14:35:39.872Z,0.13
2022-09-10T14:38:27.560Z,0.28
2022-09-10T14:41:05.439Z,0.10
2022-09-10T14:43:40.286Z,0.32
2022-09-10T14:46:15.770Z,0.30
2022-09-10T14:49:05.584Z,0.17
2022-09-10T14:51:35.767Z,0.30
2022-09-10T14:54:06.143Z,0.10
2022-09-10T14:56:37.954Z,0.45
2022-09-10T14:59:17.962Z,0.25
2022-09-10T15:01:51.539Z,0.10
2022-09-10T15:04:23.661Z,0.20
2022-09-10T15:06:55.802Z,0.30
2022-09-10T15:09:26.210Z,0.30
2022-09-10T15:11:59.898Z,0.47
2022-09-10T15:14:30.055Z,0.30
2022-09-10T15:17:05.761Z,0.22
2022-09-10T15:19:35.959Z,0.30
2022-09-10T15:22:06.146Z,0.22
2022-09-10T15:24:58.661Z,0.15
2022-09-10T15:27:26.820Z,0.20
2022-09-10T15:29:57.982Z,0.50
2022-09-10T15:32:30.858Z,0.60
2022-09-10T15:35:01.150Z,0.10
2022-09-10T15:37:31.404Z,0.10
2022-09-10T15:40:01.653Z,0.30
2022-09-10T15:42:31.931Z,0.20
2022-09-10T15:45:02.114Z,0.30
2022-09-10T15:47:36.280Z,0.30
2022-09-10T15:50:06.736Z,0.30
2022-09-10T15:52:36.926Z,0.40
2022-09-10T15:55:07.461Z,0.47
2022-09-10T15:57:39.569Z,0.47
2022-09-10T16:00:11.953Z,0.88
2022-09-10T16:02:47.990Z,0.13
2022-09-10T16:05:18.381Z,0.40
2022-09-10T16:07:49.639Z,0.35
2022-09-10T16:10:20.136Z,0.50
2022-09-10T16:12:50.382Z,0.30
2022-09-10T16:15:20.671Z,0.40
2022-09-10T16:17:53.449Z,0.52
2022-09-10T16:20:24.696Z,0.38
2022-09-10T16:22:55.401Z,0.30
2022-09-10T16:25:25.641Z,0.68
2022-09-10T16:27:55.757Z,1.13
2022-09-10T16:30:26.305Z,0.50
2022-09-10T16:32:59.093Z,0.40
2022-09-10T16:35:29.409Z,0.63
2022-09-10T16:38:00.573Z,0.28
2022-09-10T16:40:30.739Z,0.50
2022-09-10T16:43:00.989Z,0.28
2022-09-10T16:45:31.307Z,0.40
2022-09-10T16:48:04.584Z,0.35
2022-09-10T16:50:34.829Z,0.35
2022-09-10T16:53:08.996Z,0.57
2022-09-10T16:55:41.563Z,0.20
2022-09-10T16:58:12.288Z,0.30
2022-09-10T17:00:42.883Z,0.17
2022-09-10T17:03:15.787Z,0.20
2022-09-10T17:05:47.215Z,0.20
2022-09-10T17:08:17.109Z,0.20
2022-09-10T17:10:47.386Z,0.25
2022-09-10T17:13:17.657Z,0.30
2022-09-10T17:15:48.138Z,0.50
2022-09-10T17:18:20.948Z,0.43
2022-09-10T17:20:51.129Z,0.20
2022-09-10T17:23:21.316Z,0.40
2022-09-10T17:25:51.417Z,0.45
2022-09-10T17:28:21.559Z,0.20
2022-09-10T17:30:51.851Z,0.20
2022-09-10T17:33:27.340Z,0.30
2022-09-10T17:36:00.292Z,0.20
2022-09-10T17:38:30.609Z,0.57
2022-09-10T17:41:02.607Z,0.25
2022-09-10T17:43:33.936Z,0.28
2022-09-10T17:46:05.852Z,0.70
2022-09-10T17:48:38.715Z,1.13
2022-09-10T17:51:09.292Z,0.20
2022-09-10T17:53:39.425Z,0.30
2022-09-10T17:56:11.183Z,0.20
2022-09-10T17:58:41.798Z,0.40
2022-09-10T18:01:14.079Z,0.20
2022-09-10T18:03:46.916Z,0.30
2022-09-10T18:06:17.428Z,0.20
2022-09-10T18:08:48.282Z,0.40
2022-09-10T18:11:19.299Z,0.32
2022-09-10T18:13:53.470Z,0.35
2022-09-10T18:16:26.599Z,0.40
2022-09-10T18:19:00.068Z,0.50
2022-09-10T18:21:32.099Z,0.30
2022-09-10T18:24:03.326Z,0.30
2022-09-10T18:26:34.704Z,0.40
2022-09-10T18:29:06.461Z,0.50
2022-09-10T18:31:39.041Z,0.30
2022-09-10T18:34:17.502Z,0.30
2022-09-10T18:36:50.438Z,0.50
2022-09-10T18:39:21.171Z,0.40
2022-09-10T18:41:51.588Z,0.45
2022-09-10T18:44:23.397Z,0.20
2022-09-10T18:46:56.060Z,0.40
2022-09-10T18:49:29.292Z,0.30
2022-09-10T18:52:03.469Z,0.30
2022-09-10T18:57:05.991Z,0.38
2022-09-10T18:59:39.419Z,0.40
2022-09-10T19:02:10.273Z,0.40
2022-09-10T19:05:00.715Z,0.68
2022-09-10T19:07:36.458Z,0.65
2022-09-10T19:10:10.828Z,0.55
2022-09-10T19:12:40.952Z,0.47
2022-09-10T19:15:12.005Z,0.70
2022-09-10T19:17:46.208Z,0.30
2022-09-10T19:20:19.125Z,0.55
2022-09-10T19:22:49.326Z,0.47
2022-09-10T19:25:19.543Z,0.82
2022-09-10T19:27:49.896Z,0.57
2022-09-10T19:30:20.065Z,0.68
2022-09-10T19:32:50.239Z,0.70
2022-09-10T19:35:23.950Z,0.50
2022-09-10T19:37:54.144Z,0.65
2022-09-10T19:40:24.330Z,0.70
2022-09-10T19:42:54.578Z,0.80
2022-09-10T19:45:27.243Z,0.75
2022-09-10T19:47:59.566Z,0.70
2022-09-10T19:50:33.804Z,0.70
2022-09-10T19:53:04.381Z,0.77
2022-09-10T19:55:37.025Z,0.60
2022-09-10T19:58:07.409Z,0.68
2022-09-10T20:00:46.965Z,0.75
2022-09-10T20:03:18.289Z,0.80
2022-09-10T20:05:51.140Z,0.55
2022-09-10T20:08:21.371Z,0.57
2022-09-10T20:10:54.808Z,1.02
2022-09-10T20:13:25.092Z,0.60
2022-09-10T20:15:55.652Z,0.88
2022-09-10T20:18:29.757Z,0.75
2022-09-10T20:23:41.861Z,1.02
2022-09-10T20:26:14.264Z,1.10
2022-09-10T20:28:44.478Z,1.35
2022-09-10T20:31:15.864Z,1.10
2022-09-10T20:33:46.253Z,1.60
2022-09-10T20:36:20.083Z,1.10
2022-09-10T20:38:50.665Z,1.13
2022-09-10T20:41:21.072Z,1.75
2022-09-10T20:43:53.908Z,1.00
2022-09-10T20:46:25.388Z,1.77
2022-09-10T20:48:56.856Z,1.13
2022-09-10T20:51:29.628Z,1.30
2022-09-10T20:53:59.769Z,1.45
2022-09-10T20:56:29.955Z,1.35
2022-09-10T20:59:01.866Z,1.60
2022-09-10T21:01:33.994Z,1.50
2022-09-10T21:04:04.664Z,1.85
2022-09-10T21:06:37.972Z,1.63
2022-09-10T21:09:08.980Z,2.00
2022-09-10T21:11:39.427Z,1.67
2022-09-10T21:14:11.433Z,1.80
2022-09-10T21:16:43.153Z,2.10
2022-09-10T21:19:14.248Z,2.25
2022-09-10T21:21:48.795Z,2.08
2022-09-10T21:24:20.205Z,1.77
2022-09-10T21:26:50.377Z,1.67
2022-09-10T21:29:21.343Z,2.42
2022-09-10T21:31:54.635Z,1.90
2022-09-10T21:34:24.774Z,1.90
2022-09-10T21:37:00.029Z,2.20
2022-09-10T21:39:30.175Z,1.85
2022-09-10T21:42:00.573Z,1.80
2022-09-10T21:44:32.296Z,2.85
2022-09-10T21:47:02.463Z,2.60
2022-09-10T21:49:32.728Z,2.75
2022-09-10T21:52:05.645Z,2.78
2022-09-10T21:54:36.592Z,2.75
2022-09-10T21:57:10.896Z,2.75
2022-09-10T21:59:41.612Z,3.28
2022-09-10T22:02:11.843Z,3.03
2022-09-10T22:04:42.645Z,3.20
2022-09-10T22:07:15.665Z,3.63
2022-09-10T22:09:45.830Z,3.58
2022-09-10T22:12:15.962Z,3.30
2022-09-10T22:14:47.156Z,3.55
2022-09-10T22:17:17.783Z,3.08
2022-09-10T22:19:47.963Z,3.28
2022-09-10T22:22:20.664Z,3.33
2022-09-10T22:24:50.801Z,2.97
2022-09-10T22:27:20.939Z,3.55
2022-09-10T22:29:51.473Z,3.50
2022-09-10T22:32:21.613Z,3.28
2022-09-10T22:34:51.748Z,3.35
2022-09-10T22:37:24.522Z,4.03
2022-09-10T22:39:54.854Z,3.22
2022-09-10T22:42:26.280Z,3.60
2022-09-10T22:44:56.837Z,3.63
2022-09-10T22:47:27.077Z,3.45
2022-09-10T22:49:57.445Z,3.65
2022-09-10T22:52:32.724Z,2.90
2022-09-10T22:55:03.293Z,3.42
2022-09-10T22:57:33.470Z,3.25
2022-09-10T23:00:03.635Z,3.17
2022-09-10T23:02:33.783Z,3.40
2022-09-10T23:05:03.923Z,3.25
2022-09-10T23:07:37.093Z,2.95
2022-09-10T23:10:07.774Z,3.20
2022-09-10T23:12:38.607Z,3.20
2022-09-10T23:15:09.395Z,3.40
2022-09-10T23:17:39.553Z,2.95
2022-09-10T23:20:10.924Z,3.63
2022-09-10T23:22:43.662Z,2.92
2022-09-10T23:25:13.809Z,3.88
2022-09-10T23:27:43.938Z,2.65
2022-09-10T23:30:16.106Z,3.50
2022-09-10T23:32:46.515Z,3.15
2022-09-10T23:35:16.644Z,3.28
2022-09-10T23:37:49.369Z,3.95
2022-09-10T23:40:22.120Z,3.35
2022-09-10T23:42:56.869Z,2.97
2022-09-10T23:45:27.315Z,3.17
2022-09-10T23:47:58.062Z,2.97
2022-09-10T23:50:29.121Z,3.50
2022-09-10T23:53:01.646Z,3.20
2022-09-10T23:55:36.158Z,3.45
2022-09-10T23:58:06.739Z,3.80
